Mc Guffey, Ohio
Current Conditions -  °F | °C
As of 3:53 AM on Wednesday 22 Oct 2014 (Local Time) from KAOH Reporting Station
Overcast Overcast  
Wind Chill: 40°   Ceiling: 1500
Heat Index: 44°   Visibility: 10mi
Dew Point: 37°   Wind: 7mph
Humidity: 76%   Direction: 350°N
Pressure: 30.21"   Gusts: NA
Location:  40.6943°N, 83.7835°W
Report Text: KAOH 220753Z AUTO 35006KT 10SM OVC015 07/03 A3021 RMK AO2 SLP235 T00670028
Loading
Personal Weather Stations






























Interactive Weather Map
Tropical Storm Tracking
New forecast layout! Learn more

10-Day Weather Forecast

Advertisements
Track Severe Weather on mobile